Località Giorno Ora Temp. Umid. Relat. Dew Point Press. Atm. Velocità Vento Direz. Vento Precip. Temp.
Min
Temp.
Max
Abano (PD) 24/01/17 20.15 5.1 °C 63 % -1.4 °C 1018.2 hPa 1.6 Km/h NNE 0.0 mm  -1.0 °C 12.6 °C
Acquapendente (VT) 24/01/17 20.12 8.0 °C 56 % -0.3 °C 1011.0 hPa 0.0 Km/h NW 0.0 mm  5.1 °C 11.3 °C
Acquaviva delle Fonti (BA) 24/01/17 20.13 7.7 °C 94 % 6.8 °C 1012.6 hPa 3.3 Km/h NNE 1.6 mm  5.9 °C 9.6 °C
Ala (TN) 24/01/17 20.13 1.9 °C 56 % -6.0 °C 1019.3 hPa 0.0 Km/h ESE 0.0 mm  -0.6 °C 7.6 °C
Alleghe (BL) 24/01/17 20.14 -1.6 °C 43 % -12.6 °C 1003.3 hPa 2.2 Km/h NE 0.0 mm  -5.0 °C 5.3 °C
Alleghe Lago (BL) 24/01/17 20.14 -3.1 °C 55 % -10.9 °C 1008.9 hPa 4.6 Km/h NNE 0.0 mm  -6.4 °C 3.5 °C
Ancona (AN) 24/01/17 20.15 6.9 °C 74 % 2.6 °C 1017.5 hPa 4.8 Km/h WSW 0.0 mm  4.3 °C 7.2 °C
Arenzano (GE) 24/01/17 20.13 11.4 °C 35 % -3.5 °C 1016.1 hPa 29.0 Km/h NW 0.0 mm  8.8 °C 12.8 °C
Arquà Polesine (RO) 24/01/17 20.13 5.3 °C 52 % -3.8 °C 1014.5 hPa 3.6 Km/h N 0.0 mm  -1.7 °C 11.4 °C
Arzignano loc. Castello (VI) 24/01/17 19.45 5.9 °C 55 % -2.5 °C 1018.5 hPa 0.0 Km/h WSW 0.0 mm  2.7 °C 13.6 °C
Arzignano Pugnello (VI) 24/01/17 20.13 5.7 °C 56 % -2.8 °C 1017.4 hPa 0.0 Km/h NNW 0.0 mm  2.0 °C 11.8 °C
Arzignano San Bortolo (VI) 24/01/17 20.00 8.4 °C 45 % -2.9 °C 1015.8 hPa 9.7 Km/h N 0.0 mm  4.4 °C 10.9 °C
Arzignano Tezze (VI) 24/01/17 20.02 0.7 °C 83 % -1.9 °C 1018.5 hPa 0.0 Km/h N 0.0 mm  -2.9 °C 11.5 °C
Asiago Rifugio Val Formica (VI) 24/01/17 20.02 -6.8 °C 78 % -10.0 °C 1021.2 hPa 0.0 Km/h WNW 0.0 mm  -8.6 °C 3.6 °C
Avenza-Carrara (MS) 24/01/17 20.15 8.3 °C 57 % 0.3 °C 1017.7 hPa 0.0 Km/h --- 0.0 mm  3.9 °C 15.1 °C
Avio (TN) 24/01/17 20.14 3.8 °C 44 % -7.4 °C 1018.2 hPa 0.0 Km/h SW 0.0 mm  0.4 °C 9.4 °C
Badia Calavena loc. San Valentino (VR) 24/01/17 20.13 3.8 °C 51 % -5.4 °C 1016.5 hPa 17.7 Km/h NNE 0.0 mm  3.1 °C 8.6 °C
Barcellona P.G. Centro (ME) 24/01/17 20.13 10.6 °C 84 % 8.0 °C 1012.8 hPa 8.0 Km/h E 1.6 mm  10.3 °C 14.3 °C
Barcellona Pozzo di Gotto (ME) 24/01/17 20.13 10.7 °C 87 % 8.6 °C 1013.1 hPa 7.4 Km/h ESE 23.9 mm  10.5 °C 13.8 °C
Bassano del Grappa (VI) 24/01/17 07.50 4.6 °C 44 % -6.7 °C 1004.1 hPa 8.0 Km/h NNW 0.0 mm  3.8 °C 4.9 °C
Bellaria Igea Marina (RN) 24/01/17 20.13 4.1 °C 74 % -0.1 °C 1017.1 hPa 4.8 Km/h WSW 0.0 mm  4.1 °C 10.2 °C
Bellaria Igea Marina2 (RN) 24/01/17 20.13 4.3 °C 76 % 0.4 °C 1017.1 hPa 3.2 Km/h W 0.0 mm  4.3 °C 10.3 °C
Bellaria Igea Marina3 (RN) 24/01/17 20.13 3.0 °C 73 % -1.4 °C 1017.0 hPa 4.3 Km/h SW 0.0 mm  3.0 °C 9.8 °C
Belluno Castion (BL) 24/01/17 20.15 -0.3 °C 68 % -5.5 °C 1019.8 hPa 0.0 Km/h --- 0.0 mm  -6.0 °C 6.9 °C
Besenello (TN) 24/01/17 20.14 2.9 °C 42 % -8.8 °C 1021.0 hPa 5.4 Km/h WSW 0.0 mm  -2.5 °C 6.4 °C
Besozzo (VA) 24/01/17 20.18 -0.6 °C 75 % -4.5 °C 1019.0 hPa 0.0 Km/h --- 0.0 mm  -6.4 °C 10.8 °C
Biasì (OT) 24/01/17 19.58 8.3 °C 89 % 6.6 °C 1014.3 hPa 0.0 Km/h ENE 2.0 mm  2.8 °C 10.3 °C
Bisignano (CS) 24/01/17 20.13 7.5 °C 87 % 5.5 °C 1012.0 hPa 6.9 Km/h NW 13.2 mm  7.2 °C 9.4 °C
Bitti (NU) 24/01/17 20.13 7.0 °C 91 % 5.6 °C 1014.0 hPa 0.0 Km/h --- 0.0 mm  2.0 °C 9.0 °C
Bolognano di Arco (TN) 24/01/17 19.05 1.8 °C 59 % -5.3 °C 1019.2 hPa 0.0 Km/h E 0.0 mm  -2.5 °C 11.1 °C
Bonorva (SS) 24/01/17 20.15 7.7 °C 91 % 6.3 °C 1015.6 hPa 0.0 Km/h ENE 0.2 mm  1.8 °C 11.1 °C
Borgo Valsugana (TN) 24/01/17 20.02 -2.0 °C 55 % -9.8 °C 1020.9 hPa 0.0 Km/h WSW 0.0 mm  -6.4 °C 6.6 °C
Borgofranco d'Ivrea (TO) 24/01/17 20.13 4.2 °C 51 % -5.1 °C 1018.4 hPa 22.7 Km/h N 0.0 mm  0.9 °C 14.3 °C
Borore (NU) 24/01/17 20.14 8.0 °C 86 % 5.8 °C 1015.1 hPa 0.0 Km/h ENE 0.0 mm  2.8 °C 11.9 °C
Brebbia (VA) 24/01/17 20.00 0.8 °C 72 % -3.7 °C 1019.3 hPa 1.6 Km/h SSE 0.0 mm  -4.0 °C 10.3 °C
Bresega (PD) 24/01/17 20.14 3.7 °C 61 % -3.3 °C 1018.3 hPa 2.0 Km/h N 0.0 mm  -2.1 °C 12.2 °C
Brolo c/da Parrazzà (ME) 24/01/17 20.15 8.9 °C 90 % 7.3 °C 1012.8 hPa 6.0 Km/h ESE 1.6 mm  8.9 °C 12.9 °C
Brugine2 (PD) 24/01/17 20.12 4.3 °C 66 % -1.5 °C 1019.1 hPa 1.9 Km/h NNE 0.0 mm  -2.7 °C 11.8 °C
Buccheri (SR) 24/01/17 20.04 4.1 °C 67 % -1.5 °C 1006.0 hPa 0.0 Km/h W 0.0 mm  2.9 °C 8.9 °C
Budoia (PN) 24/01/17 20.00 2.3 °C 62 % -4.2 °C 1019.7 hPa 0.0 Km/h SSW 0.0 mm  0.2 °C 12.7 °C
Ca' Gallo (PU) 24/01/17 20.01 2.5 °C 84 % 0.1 °C 1013.1 hPa 1.4 Km/h ESE 0.0 mm  2.5 °C 10.0 °C
Calcinato (BS) 24/01/17 20.13 4.8 °C 53 % -3.9 °C 1021.2 hPa 1.6 Km/h E 0.0 mm  -0.4 °C 10.9 °C
Calliano (TN) 24/01/17 20.13 -0.6 °C 56 % -8.2 °C 1019.9 hPa 3.2 Km/h N 0.0 mm  -2.8 °C 6.8 °C
Caltabellotta (AG) 24/01/17 20.10 5.4 °C 88 % 3.6 °C 1012.4 hPa 0.0 Km/h E 8.4 mm  4.9 °C 8.3 °C
Cammarata (AG) 24/01/17 20.13 5.3 °C 59 % -2.1 °C 1013.6 hPa 7.2 Km/h NW 10.5 mm  3.5 °C 8.3 °C
Campoformido (UD) 24/01/17 20.10 0.9 °C 59 % -6.2 °C 1019.5 hPa 22.6 Km/h E 0.0 mm  0.5 °C 9.7 °C
Camposampiero (PD) 24/01/17 20.17 5.2 °C 21 % -15.4 °C 1019.0 hPa 7.4 Km/h ENE 0.0 mm  5.2 °C 5.4 °C
Capodimonte (VT) 24/01/17 20.10 9.0 °C 63 % 2.3 °C 1015.8 hPa 3.2 Km/h N 0.0 mm  7.4 °C 11.2 °C
Caprarola Centro Storico (VT) 24/01/17 20.13 8.0 °C 73 % 3.5 °C 1013.0 hPa 2.6 Km/h WSW 0.0 mm  6.7 °C 11.4 °C
Caprino (VR) 24/01/17 20.13 3.5 °C 63 % -2.9 °C 1016.8 hPa 0.0 Km/h NW 0.0 mm  2.4 °C 13.2 °C
Carceri (PD) 24/01/17 20.01 2.8 °C 73 % -1.7 °C 1017.8 hPa 9.7 Km/h NE 0.0 mm  -2.8 °C 12.8 °C
Carmignano loc. Seano (PO) 24/01/17 20.14 10.5 °C 42 % -1.9 °C 1016.6 hPa 9.6 Km/h NE 0.0 mm  8.9 °C 13.9 °C
Carpi (MO) 24/01/17 20.13 4.5 °C 63 % -1.9 °C 1017.9 hPa 0.0 Km/h NW 0.0 mm  2.3 °C 12.2 °C
Cartigliano (VI) 24/01/17 20.13 3.6 °C 59 % -3.7 °C 1018.5 hPa 1.5 Km/h N 0.0 mm  -2.3 °C 12.3 °C
Casotto (VI) 24/01/17 20.03 2.1 °C 63 % -4.4 °C 1018.5 hPa 0.0 Km/h NW 0.0 mm  0.2 °C 11.7 °C
Cassano Magnago (VA) 24/01/17 20.01 3.9 °C 64 % -2.2 °C 1018.5 hPa 0.0 Km/h NE 0.0 mm  -1.2 °C 14.0 °C
Castel d'Azzano (VR) 24/01/17 20.05 4.1 °C 64 % -2.1 °C 844.6 hPa 0.0 Km/h --- 0.0 mm  -1.7 °C 11.3 °C
Castelfranco Veneto (TV) 24/01/17 20.15 5.0 °C 63 % -1.5 °C 1019.8 hPa 0.0 Km/h NNE 0.0 mm  -2.4 °C 12.7 °C
Castelfranco Veneto2 (TV) 24/01/17 19.54 5.9 °C 61 % -1.1 °C 1018.2 hPa 0.0 Km/h ENE 0.0 mm  -1.9 °C 12.4 °C
Castelgomberto (VI) 24/01/17 20.14 4.1 °C 64 % -2.1 °C 1018.4 hPa 0.2 Km/h NW 0.0 mm  -0.3 °C 12.3 °C
Castelnuovo V.C. (PI) 24/01/17 20.10 6.5 °C 56 % -1.7 °C 1015.2 hPa 0.9 Km/h ENE 0.0 mm  4.7 °C 9.8 °C
Castiglione del Lago (PG) 24/01/17 05.50 5.7 °C 80 % 2.5 °C 1017.0 hPa 3.2 Km/h N 0.0 mm  5.3 °C 6.0 °C
Castiglione della Pescaia (GR) 24/01/17 20.13 11.2 °C 53 % 2.0 °C 1017.2 hPa 9.7 Km/h NNE 0.0 mm  8.4 °C 16.1 °C
Castiglione della Pescaia Vaticino (GR) 24/01/17 20.13 11.5 °C 49 % 1.2 °C 1015.7 hPa 0.0 Km/h N 0.0 mm  9.1 °C 15.2 °C
Cavaria con Premezzo (VA) 24/01/17 20.13 2.3 °C 69 % -2.8 °C 1018.2 hPa 3.0 Km/h NE 0.0 mm  -1.4 °C 12.7 °C
Cavazzale (VI) 24/01/17 20.15 2.9 °C 69 % -2.2 °C 1019.7 hPa 0.0 Km/h --- 0.0 mm  -2.2 °C 9.6 °C
Cefalù (PA) 24/01/17 20.13 10.3 °C 75 % 6.1 °C 1009.5 hPa 2.4 Km/h S 0.0 mm  8.9 °C 13.1 °C
Cerea (VR) 24/01/17 19.25 2.9 °C 67 % -2.6 °C 1018.1 hPa 1.6 Km/h NNW 0.0 mm  -2.1 °C 12.2 °C
Chioggia (VE) 24/01/17 20.10 6.9 °C 46 % -3.9 °C 1017.4 hPa 0.0 Km/h N 0.0 mm * 1.6 °C 8.9 °C
Chiusi (SI) 24/01/17 19.57 6.5 °C 57 % -1.4 °C 1014.4 hPa 1.6 Km/h NNW 0.0 mm  4.8 °C 10.1 °C
Cima Grappa (TV) 24/01/17 20.14 -3.8 °C 63 % -9.8 °C 1021.6 hPa 6.3 Km/h SSE 0.0 mm  -3.8 °C 2.1 °C
Cismon del Grappa loc. Corlo (VI) 24/01/17 20.14 0.6 °C 64 % -5.4 °C 1020.0 hPa 2.2 Km/h W 0.0 mm  -3.7 °C 5.7 °C
Cittadella (PD) 24/01/17 20.02 5.2 °C 54 % -3.4 °C 1018.2 hPa 0.0 Km/h ESE 0.0 mm  -0.6 °C 14.6 °C
Civita Castellana (VT) 24/01/17 20.14 9.3 °C 59 % 1.7 °C 1014.8 hPa 8.3 Km/h NW 0.0 mm  7.3 °C 12.9 °C
Cogollo del Cengio (VI) 24/01/17 20.12 2.8 °C 41 % -9.1 °C 1017.3 hPa 10.9 Km/h NW 0.0 mm  1.5 °C 10.2 °C
Colle del Piccolo San Bernardo La Thuile (AO) 24/01/17 20.01 -7.7 °C 55 % -15.6 °C 1018.8 hPa 6.4 Km/h NE 0.0 mm  -573.3 °C 70.1 °C
Colle S. Lucia Posalz (BL) 24/01/17 20.14 -1.6 °C 35 % -15.1 °C 1022.8 hPa 0.0 Km/h S 0.0 mm  -4.4 °C 7.2 °C
Cologna Veneta Sant'Andrea (VR) 24/01/17 20.15 1.4 °C 76 % -2.4 °C 1016.8 hPa 0.0 Km/h N 0.0 mm  -4.0 °C 12.2 °C
Colognola ai Colli (VR) 24/01/17 19.40 0.3 °C 76 % -3.4 °C 1019.3 hPa 1.6 Km/h W 0.0 mm  -2.9 °C 13.4 °C
Contrada Dosso Gervasio (VR) 24/01/17 20.00 3.3 °C 61 % -3.9 °C 1016.9 hPa 5.0 Km/h NNW 0.0 mm  1.8 °C 7.9 °C
Corrubio di S. Anna d'Alfaedo (VR) 24/01/17 20.20 3.4 °C 62 % -3.2 °C 1019.7 hPa 1.6 Km/h N 0.0 mm  2.3 °C 8.0 °C
Cosseria Lidora (SV) 24/01/17 20.00 4.3 °C 59 % -3.0 °C 1017.8 hPa 6.4 Km/h WNW 0.0 mm  0.9 °C 10.2 °C
Costa di Vittorio Veneto (TV) 24/01/17 20.05 4.2 °C 55 % -4.0 °C 1018.5 hPa 1.4 Km/h SW 0.0 mm  0.6 °C 12.1 °C
Dorno (PV) 24/01/17 20.13 5.1 °C 66 % -0.8 °C 1018.8 hPa 0.0 Km/h NE 0.0 mm  -1.4 °C 10.2 °C
Dossobuono (VR) 24/01/17 20.14 4.7 °C 53 % -4.0 °C 1019.7 hPa 3.2 Km/h NNW 0.0 mm  -1.3 °C 11.5 °C
Esine (BS) 24/01/17 20.14 2.8 °C 60 % -4.2 °C 1018.5 hPa 2.0 Km/h N 0.0 mm  -0.2 °C 10.4 °C
Falzè di Piave (TV) 24/01/17 20.15 0.4 °C 75 % -3.5 °C 1021.0 hPa 0.0 Km/h --- 0.0 mm  -4.6 °C 11.8 °C
Farra di Soligo (TV) 24/01/17 20.11 4.9 °C 54 % -3.7 °C 1017.9 hPa 2.9 Km/h NNW 0.0 mm  0.3 °C 10.9 °C
Favaro Veneto (VE) 24/01/17 20.10 3.3 °C 70 % -1.6 °C 1019.5 hPa 9.7 Km/h ENE 0.0 mm  -1.9 °C 11.3 °C
Feltre Celarda (BL) 24/01/17 20.13 -4.5 °C 81 % -7.3 °C 1017.9 hPa 0.0 Km/h WSW 0.0 mm  -9.9 °C 5.1 °C
Ferrara di M.B. (VR) 24/01/17 19.55 -2.0 °C 70 % -6.7 °C 1016.6 hPa 1.6 Km/h NNW 0.0 mm  -3.0 °C 6.0 °C
Fiavè loc. Ballino (TN) 24/01/17 18.03 1.0 °C 42 % -10.5 °C 1020.4 hPa 3.6 Km/h N 0.0 mm  -3.2 °C 7.2 °C
Filo di Argenta (FE) 24/01/17 20.15 2.4 °C 77 % -1.2 °C 1018.4 hPa 4.5 Km/h WNW 0.0 mm  0.9 °C 10.5 °C
Fogliano Redipuglia (GO) 24/01/17 20.02 2.1 °C 41 % -9.8 °C 1018.8 hPa 12.2 Km/h ESE 0.0 mm  -1.0 °C 11.8 °C
Foligno (PG) 24/01/17 20.10 8.8 °C 48 % -1.6 °C 1015.3 hPa 8.0 Km/h ENE 0.0 mm  8.2 °C 10.7 °C
Fontanafredda (PN) 24/01/17 20.15 2.6 °C 62 % -3.9 °C 1019.6 hPa 0.0 Km/h ESE 0.0 mm  -4.8 °C 12.3 °C
Forchiade S. Tomaso Ag. (BL) 24/01/17 20.15 -2.8 °C 50 % -11.8 °C 1019.3 hPa 0.0 Km/h --- 0.0 mm  -6.1 °C 6.9 °C
Gallio (VI) 24/01/17 20.05 -1.2 °C 67 % -6.6 °C 1019.9 hPa 0.0 Km/h N 0.0 mm  -3.2 °C 6.2 °C
Gardolo (TN) 24/01/17 20.13 -1.6 °C 55 % -9.5 °C 1020.8 hPa 0.0 Km/h NNW 0.0 mm  -6.8 °C 8.4 °C
Genova Albaro (GE) 24/01/17 20.10 9.5 °C 29 % -7.7 °C 1016.0 hPa 17.7 Km/h N 0.0 mm  7.5 °C 12.6 °C
Genova Erzelli (GE) 24/01/17 20.17 8.9 °C 41 % -3.6 °C 1015.9 hPa 17.7 Km/h N 0.0 mm  6.4 °C 12.5 °C
Girifalco (CZ) 24/01/17 20.14 6.6 °C 90 % 5.0 °C 1010.9 hPa 8.0 Km/h WNW 33.0 mm  6.0 °C 7.9 °C
Gorizia (GO) 24/01/17 20.15 1.3 °C 53 % -7.8 °C 1020.1 hPa 12.2 Km/h NNE 0.0 mm  1.3 °C 10.2 °C
Gradisca d'Isonzo (GO) 24/01/17 20.15 2.1 °C 52 % -6.7 °C 1015.9 hPa 5.8 Km/h NE 0.0 mm  1.7 °C 11.9 °C
Iglesias (CI) 19/01/17 10.07 6.9 °C 79 % 3.5 °C 1021.6 hPa 8.7 Km/h ENE 0.0 mm  -573.3 °C 6.9 °C
Isola d'Elba Marina di Campo (LI) 24/01/17 15.45 12.7 °C 70 % 7.3 °C 860.8 hPa 4.8 Km/h N 0.0 mm  8.9 °C 13.3 °C
Lavis (TN) 24/01/17 20.10 -2.6 °C 59 % -9.4 °C 1020.9 hPa 0.0 Km/h S 0.0 mm  -6.9 °C 6.7 °C
Laxolo (BG) 24/01/17 20.18 1.5 °C 66 % -4.1 °C 1013.4 hPa 0.0 Km/h E 0.0 mm  -3.3 °C 9.2 °C
Legnago (VR) 24/01/17 20.10 4.7 °C 65 % -1.3 °C 1018.3 hPa 0.0 Km/h SW 0.0 mm  -1.2 °C 9.8 °C
Lesmo (MB) 24/01/17 20.15 -0.5 °C 78 % -3.9 °C 1019.4 hPa 0.0 Km/h --- 0.0 mm  -4.7 °C 12.0 °C
Loano (SV) 24/01/17 20.10 11.8 °C 39 % -1.7 °C 1016.8 hPa 6.0 Km/h N 0.0 mm  11.7 °C 14.6 °C
Lovere (BG) 24/01/17 20.01 3.6 °C 38 % -9.4 °C 1018.0 hPa 10.1 Km/h WSW 0.0 mm  -0.1 °C 9.8 °C
Lugagnano (VR) 24/01/17 20.13 3.3 °C 57 % -4.4 °C 1018.0 hPa 0.0 Km/h WSW 0.0 mm  -1.3 °C 11.1 °C
Lusiana Sciessere (VI) 18/01/17 17.42 -0.2 °C 60 % -7.0 °C 1023.0 hPa 0.0 Km/h E 0.0 mm  -1.8 °C 4.0 °C
Magnano (BI) 24/01/17 02.57 -3.0 °C 69 % -7.9 °C 1021.5 hPa 0.1 Km/h SW 0.0 mm  -3.1 °C -2.0 °C
Malnate San Salvatore (VA) 24/01/17 20.07 0.9 °C 71 % -3.7 °C 1019.5 hPa 0.0 Km/h SSW 0.0 mm  -2.7 °C 12.1 °C
Marano Vicentino2 (VI) 24/01/17 20.10 0.6 °C 72 % -3.9 °C 1018.4 hPa 0.0 Km/h W 0.0 mm  -3.3 °C 8.4 °C
Margone (TN) 24/01/17 20.10 0.8 °C 37 % -12.2 °C 1021.6 hPa 4.5 Km/h NE 0.0 mm  -2.9 °C 5.8 °C
Marostica Valle San Floriano (VI) 24/01/17 20.14 4.5 °C 61 % -2.8 °C 1020.5 hPa 0.0 Km/h NW 0.0 mm  1.1 °C 12.2 °C
Marta (VT) 24/01/17 20.11 8.6 °C 64 % 2.2 °C 1012.3 hPa 15.9 Km/h N 0.0 mm  7.1 °C 10.9 °C
Martignano (TN) 24/01/17 20.15 1.7 °C 42 % -9.8 °C 1019.7 hPa 1.6 Km/h NW 0.0 mm  -3.4 °C 5.3 °C
Mascalucia (CT) 24/01/17 20.21 7.8 °C 94 % 6.9 °C 1011.0 hPa 0.0 Km/h N 0.0 mm  4.4 °C 14.6 °C
Masiera di Bagnacavallo (RA) 24/01/17 20.04 4.4 °C 70 % -0.6 °C 1017.2 hPa 3.2 Km/h W 0.0 mm  3.6 °C 11.5 °C
Massarosa (LU) 21/01/17 20.07 7.2 °C 50 % -2.5 °C 1025.6 hPa 13.3 Km/h SE 0.0 mm  3.2 °C 12.6 °C
Massone di Arco (TN) 24/01/17 20.10 2.3 °C 50 % -7.1 °C 1017.2 hPa 2.0 Km/h NO 0.0 mm  -1.7 °C 10.5 °C
Mazzurega (VR) 24/01/17 20.07 3.8 °C 55 % -4.4 °C 1018.8 hPa 1.6 Km/h W 0.0 mm  1.9 °C 13.3 °C
Merlara (PD) 24/01/17 20.15 2.2 °C 75 % -1.7 °C 1017.8 hPa 3.2 Km/h NNE 0.0 mm  -3.3 °C 11.9 °C
Mezzana Bigli (PV) 24/01/17 20.10 3.4 °C 73 % -0.9 °C 1017.7 hPa 0.0 Km/h NNW 0.0 mm  -1.1 °C 9.4 °C
Migliarino (FE) 24/01/17 20.10 5.2 °C 53 % -3.6 °C 1017.3 hPa 2.6 Km/h NW 0.0 mm  3.6 °C 12.5 °C
Miglionico (MT) 24/01/17 20.10 5.9 °C 96 % 5.3 °C 1012.1 hPa 9.7 Km/h NNW 5.4 mm  3.9 °C 7.4 °C
Miola di Piné (TN) 24/01/17 20.10 -1.4 °C 60 % -8.2 °C 1021.4 hPa 4.0 Km/h ENE 0.0 mm  -5.8 °C 6.5 °C
Mirabella Imbaccari (CT) 24/01/17 20.18 7.8 °C 89 % 6.1 °C 1011.7 hPa 1.9 Km/h W 0.0 mm  5.1 °C 11.5 °C
Molina (VR) 24/01/17 19.58 1.3 °C 51 % -7.7 °C 1009.0 hPa 2.6 Km/h N 0.0 mm  0.3 °C 9.1 °C
Monasterolo Torinese (TO) 24/01/17 20.15 6.1 °C 48 % -4.1 °C 1014.9 hPa 0.0 Km/h --- 0.0 mm  1.9 °C 9.4 °C
Moneglia loc. Casale (GE) 24/01/17 20.10 9.5 °C 45 % -1.9 °C 1017.3 hPa 16.7 Km/h NE 0.0 mm  9.2 °C 12.3 °C
Moneglia loc. La Secca (GE) 24/01/17 20.11 12.1 °C 45 % 0.5 °C 1015.2 hPa 0.0 Km/h SW 0.0 mm  10.1 °C 16.8 °C
Mongrando San Michele (BI) 24/01/17 20.10 4.7 °C 59 % -2.7 °C 1018.0 hPa 0.0 Km/h NW 0.0 mm  0.3 °C 9.2 °C
Montagna in Valtellina (SO) 24/01/17 20.10 1.7 °C 52 % -7.2 °C 1020.5 hPa 0.0 Km/h NE 0.0 mm  -3.4 °C 8.7 °C
Montebello Vicentino loc. Selva (VI) 24/01/17 20.11 7.6 °C 47 % -3.0 °C 1017.9 hPa 15.9 Km/h N 0.0 mm  3.6 °C 11.7 °C
Montecchio Maggiore La Valle (VI) 24/01/17 20.06 3.1 °C 59 % -4.1 °C 1013.1 hPa 0.0 Km/h N 0.0 mm  -1.5 °C 14.1 °C
Montecchio Maggiore Sant'Urbano (VI) 24/01/17 20.03 6.5 °C 41 % -5.9 °C 1021.6 hPa 4.2 Km/h NW 0.0 mm  2.7 °C 12.0 °C
Monteforte d'Alpone (VR) 24/01/17 20.15 3.8 °C 61 % -3.1 °C 1017.0 hPa 4.8 Km/h ENE 0.0 mm  -1.8 °C 12.3 °C
Montelabbate (PU) 24/01/17 20.03 6.1 °C 63 % -0.3 °C 1012.4 hPa 0.3 Km/h SE 0.0 mm  4.3 °C 9.5 °C
Montespertoli (FI) 24/01/17 20.07 8.9 °C 40 % -3.9 °C 1017.2 hPa 3.7 Km/h N 0.0 mm  5.7 °C 314.1 °C
Montorso Vicentino (VI) 24/01/17 20.10 5.4 °C 54 % -3.1 °C 1018.6 hPa 0.0 Km/h ENE 0.0 mm  4.5 °C 10.3 °C
Muzzano (BI) 24/01/17 20.00 5.8 °C 49 % -4.1 °C 1016.9 hPa 4.8 Km/h WNW 0.0 mm  2.8 °C 9.5 °C
Nichelino (TO) 24/01/17 20.15 5.6 °C 50 % -4.0 °C 1018.1 hPa 0.0 Km/h --- 0.0 mm  -2.5 °C 10.2 °C
Novara (NO) 24/01/17 20.10 4.8 °C 69 % -0.4 °C 1017.9 hPa 0.0 Km/h --- 0.0 mm  -3.4 °C 10.5 °C
Onara extraurbana (PD) 24/01/17 20.11 1.1 °C 70 % -3.8 °C 1013.7 hPa 0.0 Km/h E 0.0 mm  -3.3 °C 12.9 °C
Oppeano (VR) 22/01/17 21.35 -0.8 °C 79 % -4.0 °C 1023.3 hPa 0.0 Km/h --- 0.0 mm  -5.0 °C 11.2 °C
Oristano (OR) 24/01/17 20.14 9.4 °C 85 % 7.0 °C 1013.8 hPa 0.0 Km/h ENE 0.0 mm  4.4 °C 14.6 °C
Orosei (NU) 24/01/17 20.16 10.5 °C 89 % 8.8 °C 1014.8 hPa 0.0 Km/h NW 4.4 mm  6.3 °C 14.3 °C
Ortonovo (SP) 24/01/17 20.10 9.9 °C 46 % -1.2 °C 1001.3 hPa 11.8 Km/h SE 0.0 mm  7.1 °C 14.0 °C
Orvieto (TR) 24/01/17 20.01 7.9 °C 55 % -0.6 °C 1012.8 hPa 2.6 Km/h NW 0.0 mm  6.1 °C 13.1 °C
Ovaro loc. Liariis (UD) 24/01/17 20.10 -0.9 °C 58 % -8.1 °C 1023.0 hPa 0.0 Km/h --- 0.0 mm  -3.4 °C 10.3 °C
Pace del Mela (ME) 24/01/17 20.10 9.1 °C 87 % 7.1 °C 1013.1 hPa 3.9 Km/h SE 1.2 mm  9.1 °C 13.1 °C
Padergnone (TN) 24/01/17 20.00 4.8 °C 36 % -9.1 °C 1019.8 hPa 0.2 Km/h NNW 0.0 mm  1.5 °C 8.9 °C
Parella (TO) 24/01/17 20.06 5.3 °C 56 % -2.7 °C 1016.5 hPa 3.2 Km/h NW 0.0 mm  0.7 °C 9.8 °C
Pastrengo (VR) 24/01/17 20.04 4.4 °C 35 % -9.7 °C 1018.5 hPa 1.1 Km/h SE 0.0 mm  2.0 °C 11.4 °C
Pastrengo Cornè (VR) 24/01/17 20.16 4.3 °C 44 % -6.9 °C 1018.0 hPa 0.0 Km/h NE 0.0 mm  2.2 °C 11.7 °C
Pecetto Torinese (TO) 24/01/17 20.05 5.7 °C 53 % -3.1 °C 1018.2 hPa 1.6 Km/h NW 0.0 mm  0.2 °C 10.2 °C
Pedara (CT) 24/01/17 20.09 8.0 °C 76 % 4.0 °C 1007.5 hPa 2.6 Km/h NNW 5.9 mm  3.4 °C 11.6 °C
Pedemonte (VR) 24/01/17 20.15 2.3 °C 66 % -3.4 °C 1018.4 hPa 0.0 Km/h N 0.0 mm  -1.8 °C 11.8 °C
Perugia San Mariano (PG) 24/01/17 20.00 9.1 °C 46 % -1.9 °C 1013.6 hPa 7.6 Km/h NNE 0.0 mm  7.2 °C 11.8 °C
Pila Valsesia (VC) 24/01/17 20.15 -0.1 °C 63 % -6.3 °C 1018.7 hPa 1.6 Km/h NW 0.0 mm  -4.7 °C 6.0 °C
Piovà Massaia (AT) 24/01/17 20.10 7.0 °C 47 % -3.5 °C 1017.3 hPa 1.4 Km/h NW 0.0 mm  -2.1 °C 9.5 °C
Pisa zona I Passi (PI) 24/01/17 20.10 10.4 °C 46 % -0.7 °C 1016.3 hPa 0.0 Km/h WNW 0.0 mm  6.8 °C 15.1 °C
Pomezia (RM) 24/01/17 20.09 11.4 °C 68 % 5.7 °C 1012.6 hPa 12.9 Km/h NW 0.2 mm  8.6 °C 13.7 °C
Ponte San Nicolò (PD) 24/01/17 20.08 5.7 °C 55 % -2.7 °C 1018.5 hPa 8.0 Km/h ENE 0.0 mm  -0.4 °C 11.4 °C
Pordenone (PN) 24/01/17 20.10 3.8 °C 56 % -4.2 °C 1020.3 hPa 3.2 Km/h N 0.0 mm  -2.1 °C 12.1 °C
Pozzolo Formigaro (AL) 24/01/17 20.16 2.1 °C 74 % -2.1 °C 1018.3 hPa 3.2 Km/h S 0.0 mm  -1.9 °C 8.1 °C
Pray (BI) 24/01/17 20.10 1.9 °C 75 % -2.1 °C 1018.9 hPa 0.0 Km/h --- 0.0 mm  -5.7 °C 10.4 °C
Quinto di Valpantena (VR) 24/01/17 20.10 4.0 °C 65 % -2.0 °C 1018.8 hPa 1.6 Km/h NNW 0.0 mm  0.3 °C 11.8 °C
Recoaro Terme (VI) 24/01/17 16.46 0.2 °C 75 % -3.9 °C 1017.2 hPa 0.0 Km/h SW 0.2 mm  0.2 °C 6.7 °C
Riccione (RN) 24/01/17 19.55 5.2 °C 66 % -0.6 °C 1018.3 hPa 3.2 Km/h WNW 0.0 mm  4.9 °C 9.6 °C
Rifugio Bocca di Selva (VR) 24/01/17 20.10 -0.6 °C 72 % -5.0 °C 1017.4 hPa 6.4 Km/h E 0.0 mm  -1.3 °C 2.9 °C
Rifugio Fiori del Baldo (VR) 24/01/17 20.16 -2.4 °C 63 % -7.2 °C 1015.4 hPa 4.9 Km/h W 0.0 mm  -3.5 °C 1.3 °C
Rifugio Primaneve (VR) 24/01/17 20.07 -1.2 °C 70 % -6.0 °C 1019.5 hPa 0.0 Km/h NNE 0.0 mm  -2.9 °C 0.9 °C
Rimini (RN) 24/01/17 20.10 5.2 °C 65 % -0.9 °C 1018.2 hPa 0.0 Km/h W 0.0 mm  5.2 °C 10.2 °C
Rimini Zona Palas (RN) 24/01/17 20.04 5.1 °C 66 % -1.1 °C 1018.2 hPa 6.4 Km/h WSW 0.0 mm  4.7 °C 9.8 °C
Rivalba (TO) 20/01/17 13.45 6.4 °C 57 % -1.5 °C 1027.0 hPa 0.0 Km/h NE 0.0 mm  6.4 °C 6.4 °C
Rivalta sul Mincio (MN) 24/01/17 20.16 2.5 °C 75 % -1.5 °C 1019.0 hPa 3.0 Km/h NE 0.0 mm  -1.7 °C 12.2 °C
Roma Prato della Signora (RM) 20/01/17 20.09 8.3 °C 67 % 2.5 °C 1026.0 hPa 0.0 Km/h NNW 0.0 mm  8.3 °C 9.8 °C
Roma Via Salaria (RM) 24/01/17 20.00 10.5 °C 67 % 4.6 °C 1019.2 hPa 4.0 Km/h NW 1.0 mm  7.7 °C 15.0 °C
Romano d'Ezzelino Fellette (VI) 24/01/17 20.00 5.3 °C 52 % -3.8 °C 1022.2 hPa 3.2 Km/h NW 0.0 mm  -1.1 °C 13.4 °C
Ronciglione Centro (VT) 24/01/17 20.10 8.8 °C 50 % -1.1 °C 1013.0 hPa 1.9 Km/h NW 0.2 mm  6.8 °C 13.4 °C
Ronciglione - Ponte Cuzzoli (VT) 24/01/17 20.15 8.3 °C 69 % 2.9 °C 1014.0 hPa 3.2 Km/h W 0.2 mm  5.5 °C 12.9 °C
Rosolina (RO) 24/01/17 20.00 5.7 °C 77 % 2.0 °C 1017.8 hPa 8.0 Km/h NNE 0.0 mm  -0.9 °C 10.6 °C
Rossano Veneto (VI) 24/01/17 20.10 3.5 °C 61 % -3.3 °C 1019.4 hPa 6.4 Km/h NE 0.0 mm  -1.6 °C 11.9 °C
S. Giovanni Ilarione2 (VR) 24/01/17 20.10 3.2 °C 68 % -2.2 °C 1019.0 hPa 3.2 Km/h NW 0.0 mm  0.3 °C 10.9 °C
S. Giovanni Lupatoto (VR) 24/01/17 20.10 3.9 °C 70 % -1.1 °C 1019.2 hPa 0.0 Km/h --- 0.0 mm  -0.9 °C 9.9 °C
S. Giovanni Rotondo (FG) 24/01/17 20.15 7.0 °C 82 % 4.1 °C 1013.7 hPa 25.7 Km/h NNW 9.2 mm  6.1 °C 8.6 °C
S. Lorenzo di Vittorio Veneto (TV) 24/01/17 20.10 4.4 °C 56 % -3.6 °C 1019.9 hPa 0.0 Km/h N 0.0 mm  2.6 °C 11.1 °C
S. Lorenzo Nuovo (VT) 24/01/17 20.11 6.7 °C 56 % -1.5 °C 1012.2 hPa 5.8 Km/h NW 0.0 mm  4.6 °C 10.1 °C
S. Maria Maddalena (RO) 24/01/17 20.05 3.7 °C 75 % -0.6 °C 1017.5 hPa 1.7 Km/h NNE 0.0 mm  2.7 °C 11.2 °C
S. Martino Lupari (PD) 24/01/17 20.10 3.4 °C 69 % -1.8 °C 1020.3 hPa 0.0 Km/h --- 0.0 mm  -2.2 °C 12.7 °C
S. Rocco di Villabalzana (VI) 24/01/17 20.13 5.4 °C 57 % -2.8 °C 1018.9 hPa 0.0 Km/h ENE 0.0 mm  2.7 °C 9.6 °C
Sacile (PN) 24/01/17 19.50 5.3 °C 52 % -3.7 °C 1019.2 hPa 11.3 Km/h ENE 0.0 mm  -3.9 °C 11.9 °C
Salcedo (VI) 24/01/17 20.10 6.3 °C 46 % -4.5 °C 1017.1 hPa 7.0 Km/h NE 0.0 mm  2.8 °C 10.7 °C
San Benedetto del Tronto (AP) 24/01/17 20.15 7.8 °C 50 % -2.0 °C 1014.0 hPa 5.6 Km/h WNW 0.0 mm  6.9 °C 9.5 °C
San Cataldo (CL) 24/01/17 20.10 7.2 °C 85 % 4.8 °C 1008.2 hPa 4.8 Km/h W 0.0 mm  4.9 °C 10.1 °C
San Giovanni la Punta Trappeto (CT) 24/01/17 19.40 9.5 °C 87 % 7.4 °C 1012.1 hPa 8.0 Km/h N 1.0 mm  5.9 °C 16.4 °C
San Nazario (VI) 24/01/17 20.01 1.8 °C 52 % -7.0 °C 1018.8 hPa 9.7 Km/h WNW 0.0 mm  1.3 °C 9.5 °C
San Pietro in Cariano (VR) 24/01/17 20.09 3.8 °C 58 % -3.7 °C 1018.4 hPa 3.0 Km/h NE 0.0 mm  0.0 °C 11.6 °C
San Potito Lugo (RA) 24/01/17 18.25 6.3 °C 53 % -2.6 °C 1013.4 hPa 0.0 Km/h N 0.0 mm  6.3 °C 11.1 °C
San Salvo3 (CH) 24/01/17 20.10 6.7 °C 90 % 5.1 °C 1013.4 hPa 0.0 Km/h NW 6.0 mm  6.7 °C 8.4 °C
San Vito (CA) 24/01/17 20.11 10.6 °C 90 % 9.0 °C 1009.8 hPa 0.0 Km/h E 8.6 mm  6.4 °C 10.6 °C
Santarcangelo di Romagna (RN) 24/01/17 20.11 3.4 °C 70 % -1.6 °C 1017.8 hPa 6.9 Km/h N 0.0 mm  3.4 °C 9.9 °C
Savelli (KR) 24/01/17 20.10 1.4 °C 97 % 1.0 °C 1011.6 hPa 12.6 Km/h SW 82.8 mm  1.4 °C 4.8 °C
Schio (VI) 24/01/17 20.05 3.6 °C 64 % -2.6 °C 1020.6 hPa 8.0 Km/h WNW 0.0 mm  1.6 °C 12.0 °C
Schio Monte Magré (VI) 24/01/17 09.08 6.0 °C 59 % -1.4 °C 0.0 hPa 1.6 Km/h E 0.0 mm  2.4 °C 6.0 °C
Seremange Erzange (Moselle) 24/01/17 20.10 -0.2 °C 84 % -2.6 °C 1030.4 hPa 6.5 Km/h ENE 0.0 mm  -2.9 °C 0.1 °C
Sinnai (CA) 24/01/17 20.05 9.8 °C 83 % 7.0 °C 1015.1 hPa 0.0 Km/h NNE 13.2 mm  7.4 °C 14.2 °C
Soave Borgo Bassano (VR) 24/01/17 20.15 3.1 °C 68 % -2.3 °C 1019.1 hPa 0.0 Km/h ENE 0.0 mm  -1.6 °C 13.1 °C
Soriso (NO) 24/01/17 20.10 5.9 °C 53 % -3.0 °C 1018.9 hPa 0.0 Km/h WNW 0.0 mm  1.1 °C 9.7 °C
Staranzano (GO) 24/01/17 20.00 4.4 °C 43 % -7.1 °C 1020.2 hPa 9.7 Km/h ENE 0.0 mm  2.1 °C 11.4 °C
Stiore - Monteveglio (BO) 24/01/17 20.10 2.4 °C 70 % -2.5 °C 1015.4 hPa 1.6 Km/h S 0.0 mm  2.4 °C 10.8 °C
Taio Mollaro (TN) 24/01/17 20.10 -2.9 °C 61 % -9.4 °C 1020.0 hPa 0.0 Km/h N 0.0 mm  -8.1 °C 6.9 °C
Taranto (TA) 24/01/17 20.15 10.6 °C 77 % 6.7 °C 1009.5 hPa 2.2 Km/h ENE 4.8 mm  8.1 °C 11.8 °C
Todi (PG) 24/01/17 20.15 6.7 °C 58 % -1.0 °C 1014.7 hPa 8.0 Km/h NNW 0.0 mm  5.4 °C 10.1 °C
Tombolo (PD) 24/01/17 20.11 3.1 °C 68 % -2.3 °C 1020.1 hPa 0.6 Km/h NE 0.0 mm  -2.2 °C 12.9 °C
Torino Regio Parco (TO) 24/01/17 20.11 7.4 °C 55 % -1.0 °C 1019.9 hPa 1.1 Km/h SW 0.0 mm  -0.4 °C 12.1 °C
Torre Annunziata (NA) 24/01/17 20.10 11.2 °C 67 % 5.3 °C 1013.1 hPa 10.2 Km/h E 1.0 mm  9.5 °C 13.1 °C
Torremaggiore (FG) 24/01/17 01.11 7.5 °C 94 % 6.6 °C 1014.7 hPa 2.9 Km/h N 0.6 mm  7.5 °C 7.7 °C
Torri (FI) 24/01/17 20.00 6.9 °C 51 % -2.5 °C 1015.6 hPa 4.8 Km/h WNW 0.0 mm  4.4 °C 11.4 °C
Torrita di Siena (SI) 24/01/17 20.15 4.3 °C 68 % -1.1 °C 1017.1 hPa 0.0 Km/h NW 0.0 mm  4.3 °C 12.3 °C
Tortoreto (TE) 24/01/17 20.09 6.1 °C 65 % 0.0 °C 1015.8 hPa 24.1 Km/h NW 2.3 mm  5.1 °C 7.5 °C
Trambileno (TN) 24/01/17 20.01 -2.2 °C 79 % -5.6 °C 1020.2 hPa 0.0 Km/h N 0.0 mm  -5.3 °C 1.3 °C
Tregnago (VR) 24/01/17 20.03 4.2 °C 61 % -2.7 °C 1018.2 hPa 8.0 Km/h NNW 0.0 mm  1.1 °C 10.0 °C
Tregnago Loc. Centro (VR) 24/01/17 20.15 5.9 °C 49 % -4.0 °C 1012.6 hPa 9.7 Km/h NE 0.0 mm  4.1 °C 9.7 °C
Trento (TN) 24/01/17 20.11 1.2 °C 52 % -7.6 °C 1019.6 hPa 6.4 Km/h ENE 0.0 mm  -2.6 °C 7.2 °C
Treviso (TV) 24/01/17 20.10 3.2 °C 56 % -4.7 °C 1020.5 hPa 6.0 Km/h NE 0.0 mm  -2.8 °C 11.3 °C
Tuscania (VT) 24/01/17 16.45 12.3 °C 60 % 4.7 °C 1014.1 hPa 2.6 Km/h NNE 0.0 mm  7.6 °C 14.2 °C
Val Lastaro (VI) 22/01/17 17.39 -2.6 °C 56 % -10.6 °C 1030.5 hPa 0.0 Km/h WNW 0.0 mm  -6.3 °C 5.1 °C
Valdobbiadene San Pietro di Barbozza (TV) 24/01/17 20.15 6.2 °C 47 % -4.3 °C 1018.5 hPa 1.6 Km/h NE 0.0 mm  5.6 °C 10.8 °C
Valentano (VT) 24/01/17 20.10 6.7 °C 55 % -1.7 °C 1014.0 hPa 13.0 Km/h N 0.0 mm  5.2 °C 10.0 °C
Valenza (AL) 24/01/17 19.58 5.3 °C 57 % -2.6 °C 1017.5 hPa 0.0 Km/h SSE 0.0 mm  -0.8 °C 9.1 °C
Valli del Pasubio loc. Gisbenti (VI) 24/01/17 20.11 -1.3 °C 44 % -12.0 °C 976.0 hPa 2.9 Km/h W 0.0 mm  -2.8 °C 8.7 °C
Varese Ligure (SP) 24/01/17 20.10 4.5 °C 10 % -24.5 °C 1018.4 hPa 4.0 Km/h O 0.0 mm  4.5 °C 11.3 °C
Vasto (CH) 24/01/17 20.11 7.5 °C 41 % -4.9 °C 1014.4 hPa 4.7 Km/h W 3.0 mm  7.4 °C 9.8 °C
Vattaro fraz. Pian dei Pradi (TN) 24/01/17 20.13 -0.6 °C 67 % -5.9 °C 1021.8 hPa 3.7 Km/h S 0.4 mm  -4.9 °C 4.3 °C
Verona Bgo Venezia (iz3sly) (VR) 24/01/17 20.02 2.9 °C 69 % -2.2 °C 1017.5 hPa 0.0 Km/h SW 0.0 mm  -2.1 °C 10.8 °C
Vestenanova (VR) 24/01/17 20.10 5.7 °C 40 % -6.8 °C 1000.5 hPa 3.6 Km/h W 0.0 mm  2.1 °C 11.7 °C
Vicenza Campedello (VI) 24/01/17 20.14 -0.1 °C 86 % -2.2 °C 1020.1 hPa 0.0 Km/h ESE 0.0 mm  -3.9 °C 11.8 °C
Vicenza Moracchino (VI) 24/01/17 20.11 3.3 °C 71 % -1.5 °C 1018.2 hPa 6.4 Km/h NNW 0.0 mm  -2.7 °C 11.8 °C
Vicenza Pecori Giraldi (VI) 24/01/17 20.10 2.0 °C 95 % 1.3 °C 1020.1 hPa 1.1 Km/h N 0.0 mm  2.0 °C 2.0 °C
Vicenza S. Lazzaro (VI) 24/01/17 20.10 5.0 °C 62 % -1.7 °C 1018.3 hPa 2.0 Km/h NE 0.0 mm  -1.0 °C 12.2 °C
Vicenza San Gaetano (VI) 24/01/17 20.11 3.5 °C 73 % -0.9 °C 1019.1 hPa 0.0 Km/h E 0.0 mm  -1.2 °C 13.6 °C
Vidor (TV) 24/01/17 20.16 3.1 °C 58 % -4.3 °C 1018.8 hPa 3.7 Km/h NNE 0.0 mm  -1.7 °C 13.4 °C
Vieste (FG) 24/01/17 20.11 10.6 °C 77 % 6.7 °C 1014.6 hPa 22.1 Km/h W 0.8 mm  9.0 °C 12.8 °C
Vigasio (VR) 24/01/17 20.10 3.3 °C 73 % -1.1 °C 1017.1 hPa 0.0 Km/h WNW 0.0 mm  -1.7 °C 12.2 °C
Vigevano (PV) 22/01/17 15.04 8.0 °C 35 % -6.5 °C 1003.3 hPa 0.0 Km/h N 0.0 mm  -3.0 °C 8.1 °C
Viozene Toria (CN) 24/01/17 20.10 -0.3 °C 62 % -6.7 °C 1013.3 hPa 2.0 Km/h N 0.0 mm  -1.6 °C 7.4 °C
Viterbo Santa Barbara (VT) 24/01/17 19.56 7.9 °C 60 % 0.6 °C 1014.1 hPa 9.3 Km/h NE 0.0 mm  4.9 °C 11.8 °C
Vitorchiano Pallone (VT) 24/01/17 18.30 8.7 °C 67 % 2.9 °C 1012.9 hPa 4.8 Km/h N 0.2 mm  5.8 °C 11.3 °C
Vittorio Veneto (TV) 24/01/17 20.00 3.7 °C 59 % -3.6 °C 1019.5 hPa 0.0 Km/h W 0.0 mm  0.0 °C 12.1 °C
Vittorio Veneto Parco Fenderl (TV) 24/01/17 20.00 4.2 °C 62 % -2.5 °C 1019.5 hPa 3.2 Km/h E 0.0 mm  3.7 °C 10.4 °C
Volpago del Montello (TV) 24/01/17 20.15 4.8 °C 56 % -3.3 °C 1019.1 hPa 0.0 Km/h --- 0.0 mm  1.1 °C 11.6 °C
 
(*) = Precipitazioni nelle ultime 24h.
Dati non aggiornati nell'ultima ora.
   
In collaborazione con: